sensor_id;sensor_type;location;lat;lon;timestamp;temperature;humidity
20091;DHT22;10205;49.678;6.560;2023-03-30T00:00:45;18.60;52.90
20091;DHT22;10205;49.678;6.560;2023-03-30T00:03:12;18.50;52.90
20091;DHT22;10205;49.678;6.560;2023-03-30T00:05:39;18.50;53.00
20091;DHT22;10205;49.678;6.560;2023-03-30T00:08:07;18.50;53.00
20091;DHT22;10205;49.678;6.560;2023-03-30T00:10:35;18.50;53.00
20091;DHT22;10205;49.678;6.560;2023-03-30T00:13:03;18.50;53.10
20091;DHT22;10205;49.678;6.560;2023-03-30T00:15:33;18.50;53.20
20091;DHT22;10205;49.678;6.560;2023-03-30T00:18:01;18.40;53.20
20091;DHT22;10205;49.678;6.560;2023-03-30T00:20:28;18.40;53.30
20091;DHT22;10205;49.678;6.560;2023-03-30T00:22:58;18.40;53.40
20091;DHT22;10205;49.678;6.560;2023-03-30T00:25:25;18.40;53.40
20091;DHT22;10205;49.678;6.560;2023-03-30T00:27:54;18.40;53.50
20091;DHT22;10205;49.678;6.560;2023-03-30T00:30:21;18.40;53.40
20091;DHT22;10205;49.678;6.560;2023-03-30T00:32:48;18.40;53.50
20091;DHT22;10205;49.678;6.560;2023-03-30T00:35:17;18.40;53.50
20091;DHT22;10205;49.678;6.560;2023-03-30T00:37:44;18.40;53.50
20091;DHT22;10205;49.678;6.560;2023-03-30T00:40:16;18.40;53.40
20091;DHT22;10205;49.678;6.560;2023-03-30T00:42:45;18.40;53.60
20091;DHT22;10205;49.678;6.560;2023-03-30T00:45:21;18.40;53.60
20091;DHT22;10205;49.678;6.560;2023-03-30T00:48:00;18.30;53.60
20091;DHT22;10205;49.678;6.560;2023-03-30T00:50:34;18.30;53.50
20091;DHT22;10205;49.678;6.560;2023-03-30T00:53:08;18.40;53.60
20091;DHT22;10205;49.678;6.560;2023-03-30T00:55:41;18.30;53.60
20091;DHT22;10205;49.678;6.560;2023-03-30T00:58:10;18.30;53.70
20091;DHT22;10205;49.678;6.560;2023-03-30T01:00:39;18.30;53.80
20091;DHT22;10205;49.678;6.560;2023-03-30T01:03:11;18.30;53.80
20091;DHT22;10205;49.678;6.560;2023-03-30T01:05:44;18.30;53.80
20091;DHT22;10205;49.678;6.560;2023-03-30T01:08:13;18.30;53.90
20091;DHT22;10205;49.678;6.560;2023-03-30T01:10:43;18.30;54.00
20091;DHT22;10205;49.678;6.560;2023-03-30T01:13:11;18.30;54.00
20091;DHT22;10205;49.678;6.560;2023-03-30T01:15:51;18.30;54.00
20091;DHT22;10205;49.678;6.560;2023-03-30T01:18:37;18.30;54.20
20091;DHT22;10205;49.678;6.560;2023-03-30T01:24:44;18.30;54.00
20091;DHT22;10205;49.678;6.560;2023-03-30T01:27:51;18.30;54.00
20091;DHT22;10205;49.678;6.560;2023-03-30T01:30:44;18.30;54.20
20091;DHT22;10205;49.678;6.560;2023-03-30T01:33:56;18.20;54.20
20091;DHT22;10205;49.678;6.560;2023-03-30T01:40:02;18.20;54.20
20091;DHT22;10205;49.678;6.560;2023-03-30T01:42:37;18.20;54.30
20091;DHT22;10205;49.678;6.560;2023-03-30T01:45:15;18.20;54.30
20091;DHT22;10205;49.678;6.560;2023-03-30T01:47:53;18.20;54.40
20091;DHT22;10205;49.678;6.560;2023-03-30T01:50:27;18.20;54.50
20091;DHT22;10205;49.678;6.560;2023-03-30T01:53:01;18.20;54.50
20091;DHT22;10205;49.678;6.560;2023-03-30T01:55:41;18.10;54.50
20091;DHT22;10205;49.678;6.560;2023-03-30T01:58:19;18.10;54.60
20091;DHT22;10205;49.678;6.560;2023-03-30T02:00:53;18.10;54.60
20091;DHT22;10205;49.678;6.560;2023-03-30T02:03:23;18.10;54.60
20091;DHT22;10205;49.678;6.560;2023-03-30T02:05:55;18.10;54.70
20091;DHT22;10205;49.678;6.560;2023-03-30T02:08:30;18.10;54.70
20091;DHT22;10205;49.678;6.560;2023-03-30T02:11:02;18.10;54.70
20091;DHT22;10205;49.678;6.560;2023-03-30T02:13:31;18.10;54.90
20091;DHT22;10205;49.678;6.560;2023-03-30T02:16:02;18.00;54.90
20091;DHT22;10205;49.678;6.560;2023-03-30T02:18:34;18.00;55.60
20091;DHT22;10205;49.678;6.560;2023-03-30T02:21:04;18.00;54.90
20091;DHT22;10205;49.678;6.560;2023-03-30T02:23:35;18.00;54.90
20091;DHT22;10205;49.678;6.560;2023-03-30T02:26:06;18.00;55.10
20091;DHT22;10205;49.678;6.560;2023-03-30T02:28:35;18.00;55.00
20091;DHT22;10205;49.678;6.560;2023-03-30T02:31:02;18.00;55.10
20091;DHT22;10205;49.678;6.560;2023-03-30T02:33:35;18.00;55.20
20091;DHT22;10205;49.678;6.560;2023-03-30T02:36:22;17.90;55.20
20091;DHT22;10205;49.678;6.560;2023-03-30T02:39:16;17.90;55.50
20091;DHT22;10205;49.678;6.560;2023-03-30T02:42:09;17.90;55.50
20091;DHT22;10205;49.678;6.560;2023-03-30T02:44:55;17.90;55.50
20091;DHT22;10205;49.678;6.560;2023-03-30T02:47:35;17.90;55.40
20091;DHT22;10205;49.678;6.560;2023-03-30T02:50:15;17.90;55.50
20091;DHT22;10205;49.678;6.560;2023-03-30T02:52:53;17.90;56.20
20091;DHT22;10205;49.678;6.560;2023-03-30T02:55:28;17.90;55.60
20091;DHT22;10205;49.678;6.560;2023-03-30T02:58:05;17.90;55.60
20091;DHT22;10205;49.678;6.560;2023-03-30T03:00:41;17.80;56.20
20091;DHT22;10205;49.678;6.560;2023-03-30T03:03:15;17.80;55.60
20091;DHT22;10205;49.678;6.560;2023-03-30T03:05:45;17.80;55.80
20091;DHT22;10205;49.678;6.560;2023-03-30T03:08:14;17.80;55.90
20091;DHT22;10205;49.678;6.560;2023-03-30T03:10:43;17.80;56.20
20091;DHT22;10205;49.678;6.560;2023-03-30T03:13:12;17.80;56.00
20091;DHT22;10205;49.678;6.560;2023-03-30T03:15:39;17.80;56.10
20091;DHT22;10205;49.678;6.560;2023-03-30T03:18:10;17.80;56.00
20091;DHT22;10205;49.678;6.560;2023-03-30T03:20:37;17.80;56.10
20091;DHT22;10205;49.678;6.560;2023-03-30T03:23:05;17.80;56.10
20091;DHT22;10205;49.678;6.560;2023-03-30T03:25:32;17.70;56.00
20091;DHT22;10205;49.678;6.560;2023-03-30T03:27:59;17.70;56.10
20091;DHT22;10205;49.678;6.560;2023-03-30T03:30:27;17.70;56.20
20091;DHT22;10205;49.678;6.560;2023-03-30T03:32:54;17.70;56.30
20091;DHT22;10205;49.678;6.560;2023-03-30T03:35:22;17.70;56.20
20091;DHT22;10205;49.678;6.560;2023-03-30T03:37:50;17.70;56.30
20091;DHT22;10205;49.678;6.560;2023-03-30T03:40:20;17.70;56.50
20091;DHT22;10205;49.678;6.560;2023-03-30T03:42:47;17.60;56.80
20091;DHT22;10205;49.678;6.560;2023-03-30T03:45:15;17.60;56.90
20091;DHT22;10205;49.678;6.560;2023-03-30T03:47:43;17.60;57.10
20091;DHT22;10205;49.678;6.560;2023-03-30T03:50:10;17.60;57.10
20091;DHT22;10205;49.678;6.560;2023-03-30T03:52:37;17.60;56.90
20091;DHT22;10205;49.678;6.560;2023-03-30T03:55:05;17.60;56.90
20091;DHT22;10205;49.678;6.560;2023-03-30T03:57:32;17.60;56.90
20091;DHT22;10205;49.678;6.560;2023-03-30T03:59:59;17.50;57.20
20091;DHT22;10205;49.678;6.560;2023-03-30T04:02:26;17.50;57.20
20091;DHT22;10205;49.678;6.560;2023-03-30T04:04:55;17.50;57.30
20091;DHT22;10205;49.678;6.560;2023-03-30T04:07:23;17.50;57.60
20091;DHT22;10205;49.678;6.560;2023-03-30T04:09:50;17.50;57.40
20091;DHT22;10205;49.678;6.560;2023-03-30T04:12:17;17.40;57.50
20091;DHT22;10205;49.678;6.560;2023-03-30T04:14:45;17.40;57.60
20091;DHT22;10205;49.678;6.560;2023-03-30T04:17:12;17.40;57.50
20091;DHT22;10205;49.678;6.560;2023-03-30T04:19:40;17.40;57.60
20091;DHT22;10205;49.678;6.560;2023-03-30T04:22:08;17.40;57.80
20091;DHT22;10205;49.678;6.560;2023-03-30T04:24:38;17.40;57.80
20091;DHT22;10205;49.678;6.560;2023-03-30T04:27:06;17.30;57.80
20091;DHT22;10205;49.678;6.560;2023-03-30T04:29:34;17.30;57.80
20091;DHT22;10205;49.678;6.560;2023-03-30T04:32:05;17.30;58.00
20091;DHT22;10205;49.678;6.560;2023-03-30T04:34:32;17.30;58.30
20091;DHT22;10205;49.678;6.560;2023-03-30T04:36:59;17.30;59.10
20091;DHT22;10205;49.678;6.560;2023-03-30T04:39:29;17.30;58.90
20091;DHT22;10205;49.678;6.560;2023-03-30T04:41:56;17.30;58.90
20091;DHT22;10205;49.678;6.560;2023-03-30T04:44:27;17.30;59.40
20091;DHT22;10205;49.678;6.560;2023-03-30T04:46:54;17.30;58.80
20091;DHT22;10205;49.678;6.560;2023-03-30T04:49:21;17.30;58.90
20091;DHT22;10205;49.678;6.560;2023-03-30T04:51:49;17.30;59.20
20091;DHT22;10205;49.678;6.560;2023-03-30T04:54:16;17.30;59.10
20091;DHT22;10205;49.678;6.560;2023-03-30T04:56:44;17.20;59.40
20091;DHT22;10205;49.678;6.560;2023-03-30T04:59:11;17.20;59.60
20091;DHT22;10205;49.678;6.560;2023-03-30T05:01:38;17.20;59.70
20091;DHT22;10205;49.678;6.560;2023-03-30T05:04:06;17.20;59.90
20091;DHT22;10205;49.678;6.560;2023-03-30T05:06:36;17.20;60.70
20091;DHT22;10205;49.678;6.560;2023-03-30T05:09:03;17.20;59.90
20091;DHT22;10205;49.678;6.560;2023-03-30T05:11:30;17.10;60.10
20091;DHT22;10205;49.678;6.560;2023-03-30T05:13:59;17.10;60.20
20091;DHT22;10205;49.678;6.560;2023-03-30T05:16:26;17.10;60.30
20091;DHT22;10205;49.678;6.560;2023-03-30T05:18:53;17.10;60.30
20091;DHT22;10205;49.678;6.560;2023-03-30T05:21:21;17.10;60.60
20091;DHT22;10205;49.678;6.560;2023-03-30T05:23:48;17.10;61.00
20091;DHT22;10205;49.678;6.560;2023-03-30T05:26:15;17.10;61.10
20091;DHT22;10205;49.678;6.560;2023-03-30T05:28:42;17.10;61.30
20091;DHT22;10205;49.678;6.560;2023-03-30T05:31:11;17.10;61.30
20091;DHT22;10205;49.678;6.560;2023-03-30T05:33:38;17.00;61.70
20091;DHT22;10205;49.678;6.560;2023-03-30T05:36:06;17.00;61.50
20091;DHT22;10205;49.678;6.560;2023-03-30T05:38:33;17.00;61.40
20091;DHT22;10205;49.678;6.560;2023-03-30T05:41:02;17.00;61.70
20091;DHT22;10205;49.678;6.560;2023-03-30T05:43:31;17.00;61.70
20091;DHT22;10205;49.678;6.560;2023-03-30T05:45:58;17.00;61.90
20091;DHT22;10205;49.678;6.560;2023-03-30T05:48:28;17.00;62.10
20091;DHT22;10205;49.678;6.560;2023-03-30T05:50:55;17.00;62.00
20091;DHT22;10205;49.678;6.560;2023-03-30T05:53:23;17.00;62.10
20091;DHT22;10205;49.678;6.560;2023-03-30T05:55:50;17.00;61.90
20091;DHT22;10205;49.678;6.560;2023-03-30T05:58:17;17.00;62.10
20091;DHT22;10205;49.678;6.560;2023-03-30T06:00:44;17.00;62.20
20091;DHT22;10205;49.678;6.560;2023-03-30T06:03:13;17.00;62.40
20091;DHT22;10205;49.678;6.560;2023-03-30T06:05:41;17.00;62.70
20091;DHT22;10205;49.678;6.560;2023-03-30T06:08:08;16.90;62.70
20091;DHT22;10205;49.678;6.560;2023-03-30T06:10:38;16.90;62.30
20091;DHT22;10205;49.678;6.560;2023-03-30T06:13:05;16.90;62.60
20091;DHT22;10205;49.678;6.560;2023-03-30T06:15:32;16.90;62.70
20091;DHT22;10205;49.678;6.560;2023-03-30T06:17:59;16.90;62.80
20091;DHT22;10205;49.678;6.560;2023-03-30T06:20:28;16.90;62.70
20091;DHT22;10205;49.678;6.560;2023-03-30T06:22:56;16.90;63.00
20091;DHT22;10205;49.678;6.560;2023-03-30T06:25:23;16.90;63.10
20091;DHT22;10205;49.678;6.560;2023-03-30T06:27:51;16.90;63.10
20091;DHT22;10205;49.678;6.560;2023-03-30T06:30:18;16.90;63.30
20091;DHT22;10205;49.678;6.560;2023-03-30T06:32:45;16.90;63.10
20091;DHT22;10205;49.678;6.560;2023-03-30T06:35:12;16.90;63.20
20091;DHT22;10205;49.678;6.560;2023-03-30T06:37:41;16.90;63.10
20091;DHT22;10205;49.678;6.560;2023-03-30T06:40:11;16.90;63.20
20091;DHT22;10205;49.678;6.560;2023-03-30T06:42:39;16.90;63.90
20091;DHT22;10205;49.678;6.560;2023-03-30T06:45:09;16.90;63.80
20091;DHT22;10205;49.678;6.560;2023-03-30T06:47:37;16.90;64.30
20091;DHT22;10205;49.678;6.560;2023-03-30T06:50:06;16.90;64.40
20091;DHT22;10205;49.678;6.560;2023-03-30T06:52:34;16.90;64.30
20091;DHT22;10205;49.678;6.560;2023-03-30T06:55:02;16.90;64.00
20091;DHT22;10205;49.678;6.560;2023-03-30T06:57:31;16.90;63.80
20091;DHT22;10205;49.678;6.560;2023-03-30T06:59:58;16.90;63.90
20091;DHT22;10205;49.678;6.560;2023-03-30T07:02:25;16.90;63.90
20091;DHT22;10205;49.678;6.560;2023-03-30T07:04:52;16.90;64.10
20091;DHT22;10205;49.678;6.560;2023-03-30T07:07:20;16.90;63.90
20091;DHT22;10205;49.678;6.560;2023-03-30T07:09:47;17.00;63.80
20091;DHT22;10205;49.678;6.560;2023-03-30T07:12:14;17.00;64.70
20091;DHT22;10205;49.678;6.560;2023-03-30T07:14:43;17.00;63.90
20091;DHT22;10205;49.678;6.560;2023-03-30T07:17:10;17.00;64.20
20091;DHT22;10205;49.678;6.560;2023-03-30T07:19:37;17.00;64.00
20091;DHT22;10205;49.678;6.560;2023-03-30T07:22:04;17.00;64.00
20091;DHT22;10205;49.678;6.560;2023-03-30T07:24:31;17.10;64.20
20091;DHT22;10205;49.678;6.560;2023-03-30T07:26:58;17.10;64.30
20091;DHT22;10205;49.678;6.560;2023-03-30T07:29:26;17.10;64.40
20091;DHT22;10205;49.678;6.560;2023-03-30T07:31:55;17.10;64.30
20091;DHT22;10205;49.678;6.560;2023-03-30T07:34:22;17.10;64.50
20091;DHT22;10205;49.678;6.560;2023-03-30T07:36:49;17.10;64.60
20091;DHT22;10205;49.678;6.560;2023-03-30T07:39:16;17.10;64.30
20091;DHT22;10205;49.678;6.560;2023-03-30T07:41:44;17.10;64.30
20091;DHT22;10205;49.678;6.560;2023-03-30T07:44:11;17.10;64.30
20091;DHT22;10205;49.678;6.560;2023-03-30T07:46:38;17.20;64.40
20091;DHT22;10205;49.678;6.560;2023-03-30T07:49:07;17.10;64.60
20091;DHT22;10205;49.678;6.560;2023-03-30T07:51:34;17.20;64.50
20091;DHT22;10205;49.678;6.560;2023-03-30T07:54:01;17.20;64.60
20091;DHT22;10205;49.678;6.560;2023-03-30T07:56:28;17.20;64.30
20091;DHT22;10205;49.678;6.560;2023-03-30T07:58:57;17.20;64.30
20091;DHT22;10205;49.678;6.560;2023-03-30T08:01:25;17.20;64.40
20091;DHT22;10205;49.678;6.560;2023-03-30T08:03:52;17.20;64.80
20091;DHT22;10205;49.678;6.560;2023-03-30T08:06:20;17.30;64.40
20091;DHT22;10205;49.678;6.560;2023-03-30T08:08:47;17.20;64.60
20091;DHT22;10205;49.678;6.560;2023-03-30T08:11:14;17.30;64.70
20091;DHT22;10205;49.678;6.560;2023-03-30T08:13:42;17.30;64.80
20091;DHT22;10205;49.678;6.560;2023-03-30T08:16:09;17.30;64.60
20091;DHT22;10205;49.678;6.560;2023-03-30T08:18:37;17.30;64.50
20091;DHT22;10205;49.678;6.560;2023-03-30T08:21:06;17.30;64.60
20091;DHT22;10205;49.678;6.560;2023-03-30T08:23:41;17.30;64.50
20091;DHT22;10205;49.678;6.560;2023-03-30T08:26:08;17.30;64.40
20091;DHT22;10205;49.678;6.560;2023-03-30T08:28:35;17.30;64.40
20091;DHT22;10205;49.678;6.560;2023-03-30T08:31:05;17.30;64.30
20091;DHT22;10205;49.678;6.560;2023-03-30T08:33:33;17.40;64.50
20091;DHT22;10205;49.678;6.560;2023-03-30T08:36:00;17.30;65.10
20091;DHT22;10205;49.678;6.560;2023-03-30T08:38:28;17.30;64.10
20091;DHT22;10205;49.678;6.560;2023-03-30T08:40:56;17.40;64.10
20091;DHT22;10205;49.678;6.560;2023-03-30T08:43:39;17.40;64.20
20091;DHT22;10205;49.678;6.560;2023-03-30T08:46:14;17.40;64.40
20091;DHT22;10205;49.678;6.560;2023-03-30T08:48:48;17.40;64.10
20091;DHT22;10205;49.678;6.560;2023-03-30T08:51:22;17.50;64.10
20091;DHT22;10205;49.678;6.560;2023-03-30T08:53:54;17.50;64.00
20091;DHT22;10205;49.678;6.560;2023-03-30T08:56:26;17.50;63.80
20091;DHT22;10205;49.678;6.560;2023-03-30T08:59:03;17.50;63.80
20091;DHT22;10205;49.678;6.560;2023-03-30T09:01:43;17.50;63.60
20091;DHT22;10205;49.678;6.560;2023-03-30T09:04:19;17.60;63.30
20091;DHT22;10205;49.678;6.560;2023-03-30T09:06:53;17.60;63.20
20091;DHT22;10205;49.678;6.560;2023-03-30T09:09:24;17.60;63.00
20091;DHT22;10205;49.678;6.560;2023-03-30T09:12:01;17.60;62.90
20091;DHT22;10205;49.678;6.560;2023-03-30T09:14:35;17.60;63.00
20091;DHT22;10205;49.678;6.560;2023-03-30T09:17:10;17.60;63.00
20091;DHT22;10205;49.678;6.560;2023-03-30T09:19:48;17.60;62.90
20091;DHT22;10205;49.678;6.560;2023-03-30T09:22:19;17.60;63.00
20091;DHT22;10205;49.678;6.560;2023-03-30T09:24:50;17.70;62.90
20091;DHT22;10205;49.678;6.560;2023-03-30T09:27:33;17.70;62.90
20091;DHT22;10205;49.678;6.560;2023-03-30T09:30:16;17.70;62.70
20091;DHT22;10205;49.678;6.560;2023-03-30T09:32:52;17.80;62.80
20091;DHT22;10205;49.678;6.560;2023-03-30T09:35:32;17.80;62.50
20091;DHT22;10205;49.678;6.560;2023-03-30T09:38:09;17.80;62.30
20091;DHT22;10205;49.678;6.560;2023-03-30T09:40:52;17.80;63.10
20091;DHT22;10205;49.678;6.560;2023-03-30T09:43:37;17.80;62.40
20091;DHT22;10205;49.678;6.560;2023-03-30T09:46:09;17.90;62.30
20091;DHT22;10205;49.678;6.560;2023-03-30T09:48:40;17.90;62.20
20091;DHT22;10205;49.678;6.560;2023-03-30T09:51:17;17.90;62.10
20091;DHT22;10205;49.678;6.560;2023-03-30T09:53:47;17.90;61.90
20091;DHT22;10205;49.678;6.560;2023-03-30T09:56:20;18.00;61.80
20091;DHT22;10205;49.678;6.560;2023-03-30T09:58:53;18.00;61.90
20091;DHT22;10205;49.678;6.560;2023-03-30T10:01:22;18.10;61.70
20091;DHT22;10205;49.678;6.560;2023-03-30T10:04:07;18.10;61.80
20091;DHT22;10205;49.678;6.560;2023-03-30T10:06:38;18.10;61.20
20091;DHT22;10205;49.678;6.560;2023-03-30T10:09:11;18.20;61.30
20091;DHT22;10205;49.678;6.560;2023-03-30T10:11:41;18.20;61.00
20091;DHT22;10205;49.678;6.560;2023-03-30T10:14:26;18.30;60.70
20091;DHT22;10205;49.678;6.560;2023-03-30T10:16:57;18.30;60.70
20091;DHT22;10205;49.678;6.560;2023-03-30T10:19:26;18.40;60.70
20091;DHT22;10205;49.678;6.560;2023-03-30T10:21:58;18.40;60.60
20091;DHT22;10205;49.678;6.560;2023-03-30T10:24:30;18.40;60.60
20091;DHT22;10205;49.678;6.560;2023-03-30T10:27:03;18.50;60.00
20091;DHT22;10205;49.678;6.560;2023-03-30T10:29:38;18.60;60.00
20091;DHT22;10205;49.678;6.560;2023-03-30T10:32:14;18.60;59.90
20091;DHT22;10205;49.678;6.560;2023-03-30T10:34:45;18.70;59.90
20091;DHT22;10205;49.678;6.560;2023-03-30T10:37:26;18.70;59.30
20091;DHT22;10205;49.678;6.560;2023-03-30T10:39:57;18.80;59.10
20091;DHT22;10205;49.678;6.560;2023-03-30T10:42:29;18.90;59.20
20091;DHT22;10205;49.678;6.560;2023-03-30T10:45:00;18.90;58.80
20091;DHT22;10205;49.678;6.560;2023-03-30T10:47:44;19.00;58.60
20091;DHT22;10205;49.678;6.560;2023-03-30T10:50:23;19.00;58.60
20091;DHT22;10205;49.678;6.560;2023-03-30T10:53:08;19.10;58.40
20091;DHT22;10205;49.678;6.560;2023-03-30T10:55:51;19.20;58.40
20091;DHT22;10205;49.678;6.560;2023-03-30T10:58:35;19.30;58.20
20091;DHT22;10205;49.678;6.560;2023-03-30T11:01:20;19.30;58.10
20091;DHT22;10205;49.678;6.560;2023-03-30T11:03:59;19.40;57.90
20091;DHT22;10205;49.678;6.560;2023-03-30T11:06:31;19.40;57.80
20091;DHT22;10205;49.678;6.560;2023-03-30T11:09:04;19.50;57.70
20091;DHT22;10205;49.678;6.560;2023-03-30T11:11:40;19.50;57.50
20091;DHT22;10205;49.678;6.560;2023-03-30T11:14:18;19.60;58.20
20091;DHT22;10205;49.678;6.560;2023-03-30T11:16:54;19.70;57.80
20091;DHT22;10205;49.678;6.560;2023-03-30T11:19:29;19.70;57.70
20091;DHT22;10205;49.678;6.560;2023-03-30T11:22:04;19.70;57.80
20091;DHT22;10205;49.678;6.560;2023-03-30T11:24:36;19.80;58.00
20091;DHT22;10205;49.678;6.560;2023-03-30T11:27:11;19.80;58.60
20091;DHT22;10205;49.678;6.560;2023-03-30T11:29:47;19.80;57.90
20091;DHT22;10205;49.678;6.560;2023-03-30T11:32:25;19.80;57.80
20091;DHT22;10205;49.678;6.560;2023-03-30T11:35:02;19.80;57.90
20091;DHT22;10205;49.678;6.560;2023-03-30T11:37:41;19.80;57.90
20091;DHT22;10205;49.678;6.560;2023-03-30T11:40:16;19.80;57.60
20091;DHT22;10205;49.678;6.560;2023-03-30T11:42:46;19.90;56.90
20091;DHT22;10205;49.678;6.560;2023-03-30T11:45:27;19.90;56.70
20091;DHT22;10205;49.678;6.560;2023-03-30T11:48:47;19.90;56.20
20091;DHT22;10205;49.678;6.560;2023-03-30T11:51:43;19.90;56.70
20091;DHT22;10205;49.678;6.560;2023-03-30T11:54:51;19.90;56.50
20091;DHT22;10205;49.678;6.560;2023-03-30T11:57:34;19.90;56.70
20091;DHT22;10205;49.678;6.560;2023-03-30T12:00:25;19.90;57.00
20091;DHT22;10205;49.678;6.560;2023-03-30T12:03:08;19.80;57.30
20091;DHT22;10205;49.678;6.560;2023-03-30T12:05:44;19.80;57.60
20091;DHT22;10205;49.678;6.560;2023-03-30T12:08:24;19.90;58.30
20091;DHT22;10205;49.678;6.560;2023-03-30T12:11:12;19.90;58.00
20091;DHT22;10205;49.678;6.560;2023-03-30T12:13:46;19.90;58.00
20091;DHT22;10205;49.678;6.560;2023-03-30T12:16:18;19.90;58.00
20091;DHT22;10205;49.678;6.560;2023-03-30T12:19:01;19.90;58.30
20091;DHT22;10205;49.678;6.560;2023-03-30T12:21:38;19.90;57.70
20091;DHT22;10205;49.678;6.560;2023-03-30T12:24:14;20.00;57.00
20091;DHT22;10205;49.678;6.560;2023-03-30T12:26:44;20.00;57.70
20091;DHT22;10205;49.678;6.560;2023-03-30T12:29:14;20.00;57.00
20091;DHT22;10205;49.678;6.560;2023-03-30T12:32:04;20.00;56.80
20091;DHT22;10205;49.678;6.560;2023-03-30T12:34:34;20.00;56.60
20091;DHT22;10205;49.678;6.560;2023-03-30T12:37:11;20.00;57.10
20091;DHT22;10205;49.678;6.560;2023-03-30T12:39:44;19.90;57.60
20091;DHT22;10205;49.678;6.560;2023-03-30T12:42:25;19.90;57.50
20091;DHT22;10205;49.678;6.560;2023-03-30T12:45:11;19.90;57.60
20091;DHT22;10205;49.678;6.560;2023-03-30T12:48:03;19.90;57.60
20091;DHT22;10205;49.678;6.560;2023-03-30T12:50:44;19.90;57.80
20091;DHT22;10205;49.678;6.560;2023-03-30T12:53:44;19.90;57.50
20091;DHT22;10205;49.678;6.560;2023-03-30T12:56:46;20.00;57.50
20091;DHT22;10205;49.678;6.560;2023-03-30T12:59:51;20.00;57.60
20091;DHT22;10205;49.678;6.560;2023-03-30T13:05:52;20.00;57.60
20091;DHT22;10205;49.678;6.560;2023-03-30T13:08:25;20.00;57.20
20091;DHT22;10205;49.678;6.560;2023-03-30T13:11:12;20.00;57.10
20091;DHT22;10205;49.678;6.560;2023-03-30T13:13:50;20.00;57.00
20091;DHT22;10205;49.678;6.560;2023-03-30T13:16:45;20.00;56.80
20091;DHT22;10205;49.678;6.560;2023-03-30T13:19:46;20.10;56.30
20091;DHT22;10205;49.678;6.560;2023-03-30T13:22:36;20.10;56.30
20091;DHT22;10205;49.678;6.560;2023-03-30T13:25:25;20.10;56.40
20091;DHT22;10205;49.678;6.560;2023-03-30T13:27:58;20.10;55.60
20091;DHT22;10205;49.678;6.560;2023-03-30T13:30:27;20.10;55.10
20091;DHT22;10205;49.678;6.560;2023-03-30T13:33:01;20.10;54.50
20091;DHT22;10205;49.678;6.560;2023-03-30T13:35:54;20.10;54.40
20091;DHT22;10205;49.678;6.560;2023-03-30T13:38:50;20.10;54.10
20091;DHT22;10205;49.678;6.560;2023-03-30T13:41:35;20.10;54.10
20091;DHT22;10205;49.678;6.560;2023-03-30T13:44:33;20.20;53.80
20091;DHT22;10205;49.678;6.560;2023-03-30T13:47:25;20.20;54.10
20091;DHT22;10205;49.678;6.560;2023-03-30T13:50:00;20.20;53.20
20091;DHT22;10205;49.678;6.560;2023-03-30T13:52:32;20.20;53.40
20091;DHT22;10205;49.678;6.560;2023-03-30T13:55:02;20.20;53.40
20091;DHT22;10205;49.678;6.560;2023-03-30T13:57:37;20.20;53.50
20091;DHT22;10205;49.678;6.560;2023-03-30T14:00:24;20.20;53.60
20091;DHT22;10205;49.678;6.560;2023-03-30T14:02:58;20.10;53.60
20091;DHT22;10205;49.678;6.560;2023-03-30T14:05:41;20.10;54.20
20091;DHT22;10205;49.678;6.560;2023-03-30T14:08:10;20.10;54.50
20091;DHT22;10205;49.678;6.560;2023-03-30T14:10:37;20.10;54.40
20091;DHT22;10205;49.678;6.560;2023-03-30T14:13:04;20.00;54.40
20091;DHT22;10205;49.678;6.560;2023-03-30T14:15:39;20.10;54.50
20091;DHT22;10205;49.678;6.560;2023-03-30T14:18:11;20.00;54.90
20091;DHT22;10205;49.678;6.560;2023-03-30T14:20:48;20.00;54.90
20091;DHT22;10205;49.678;6.560;2023-03-30T14:23:22;20.00;54.90
20091;DHT22;10205;49.678;6.560;2023-03-30T14:25:58;19.90;54.90
20091;DHT22;10205;49.678;6.560;2023-03-30T14:28:27;19.90;55.40
20091;DHT22;10205;49.678;6.560;2023-03-30T14:30:58;19.90;55.60
20091;DHT22;10205;49.678;6.560;2023-03-30T14:33:29;19.80;55.50
20091;DHT22;10205;49.678;6.560;2023-03-30T14:35:59;19.80;55.60
20091;DHT22;10205;49.678;6.560;2023-03-30T14:38:31;19.80;55.70
20091;DHT22;10205;49.678;6.560;2023-03-30T14:41:04;19.70;55.80
20091;DHT22;10205;49.678;6.560;2023-03-30T14:43:34;19.70;55.90
20091;DHT22;10205;49.678;6.560;2023-03-30T14:46:08;19.70;55.80
20091;DHT22;10205;49.678;6.560;2023-03-30T14:48:39;19.70;56.10
20091;DHT22;10205;49.678;6.560;2023-03-30T14:51:21;19.70;56.10
20091;DHT22;10205;49.678;6.560;2023-03-30T14:53:51;19.70;56.10
20091;DHT22;10205;49.678;6.560;2023-03-30T14:56:22;19.70;56.10
20091;DHT22;10205;49.678;6.560;2023-03-30T14:58:50;19.70;55.70
20091;DHT22;10205;49.678;6.560;2023-03-30T15:01:24;19.70;55.90
20091;DHT22;10205;49.678;6.560;2023-03-30T15:03:57;19.70;56.00
20091;DHT22;10205;49.678;6.560;2023-03-30T15:06:26;19.70;55.90
20091;DHT22;10205;49.678;6.560;2023-03-30T15:08:59;19.70;55.80
20091;DHT22;10205;49.678;6.560;2023-03-30T15:11:30;19.70;55.70
20091;DHT22;10205;49.678;6.560;2023-03-30T15:14:02;19.70;55.90
20091;DHT22;10205;49.678;6.560;2023-03-30T15:16:36;19.70;55.60
20091;DHT22;10205;49.678;6.560;2023-03-30T15:19:10;19.70;55.40
20091;DHT22;10205;49.678;6.560;2023-03-30T15:21:50;19.70;55.00
20091;DHT22;10205;49.678;6.560;2023-03-30T15:24:24;19.70;55.00
20091;DHT22;10205;49.678;6.560;2023-03-30T15:26:55;19.70;54.90
20091;DHT22;10205;49.678;6.560;2023-03-30T15:29:24;19.70;54.90
20091;DHT22;10205;49.678;6.560;2023-03-30T15:32:04;19.70;54.70
20091;DHT22;10205;49.678;6.560;2023-03-30T15:34:33;19.60;54.80
20091;DHT22;10205;49.678;6.560;2023-03-30T15:37:01;19.70;54.60
20091;DHT22;10205;49.678;6.560;2023-03-30T15:39:30;19.70;54.60
20091;DHT22;10205;49.678;6.560;2023-03-30T15:42:00;19.60;54.30
20091;DHT22;10205;49.678;6.560;2023-03-30T15:44:33;19.60;54.50
20091;DHT22;10205;49.678;6.560;2023-03-30T15:47:05;19.60;54.20
20091;DHT22;10205;49.678;6.560;2023-03-30T15:49:40;19.60;54.20
20091;DHT22;10205;49.678;6.560;2023-03-30T15:52:12;19.60;54.30
20091;DHT22;10205;49.678;6.560;2023-03-30T15:54:47;19.50;54.10
20091;DHT22;10205;49.678;6.560;2023-03-30T15:57:20;19.60;54.30
20091;DHT22;10205;49.678;6.560;2023-03-30T15:59:52;19.50;54.30
20091;DHT22;10205;49.678;6.560;2023-03-30T16:02:34;19.50;54.30
20091;DHT22;10205;49.678;6.560;2023-03-30T16:05:05;19.50;54.30
20091;DHT22;10205;49.678;6.560;2023-03-30T16:07:34;19.50;54.20
20091;DHT22;10205;49.678;6.560;2023-03-30T16:10:03;19.40;54.30
20091;DHT22;10205;49.678;6.560;2023-03-30T16:12:31;19.40;54.30
20091;DHT22;10205;49.678;6.560;2023-03-30T16:15:11;19.30;54.40
20091;DHT22;10205;49.678;6.560;2023-03-30T16:17:40;19.30;54.60